Flight Sim Network - LBGO Airport Info

    LBGO (Gorna Oryahovitsa Airport)  Login to use Map Selector
   

  RUNWAY INFORMATION    |    Airport Elevation : 285ft    |    LAT : 43.1514015197754  /  LON : 25.7129001617432
Runway Number 10 / 28 Runway Width 148' Runway Length 8038'
Lighted Runway Yes Runway StatusOpen Runway Surface Concrete
  CLOSE ALTERNATE AIRPORTS
ICAODistanceAirport NameLongest RWRW SurfaceMAP
LB1G33NMKamenets8200FTConcrete
LB0O36NMShtruklovo14029FTConcrete
LB0H42NMSliven8156FTAsphalt
LB0F44NMTurgovishte Bukhovtsi7260FTAsphalt
LBSZ47NMStara Zagora Airport8200FTAsphalt
LB0G50NMOstrovo Northwest7215FTAsphalt
LB1I50NMBezmer8190FTConcrete
LB0J52NMZimnitsa8269FTAsphalt
LB0R54NMPodem3950FTGrass
LB0S54NMVeren3196FTGrass
  AIRPORT WEATHER
86°F | 30°C
Temperature
42%
Humidity
29" | 0mb
Pressure
6sm
Visibility
VFR
Flight Rules
CLR
Initial Clouds
FAIR
Conditions
Wind Info
7/23/24 17:30Z
Updated

LBGO 231730Z AUTO 02003KT 9999 NCD 30/16 Q1011
  AIRPORT FREQUENCIES
NameFrequency
GROUND119.700
TOWER119.700

Powered by Virtual Airlines Manager